This is the latest recevied weather packets stored in our database for station/object KF4ZNO-13. If no packets are shown the sender has not sent any weather packets the latest 10 day(s).
| Time | Temp. | Humidity | Pressure | Rain* | Wind** | Luminosity | Snow |
|---|---|---|---|---|---|---|---|
| 1777558220 | 20.56° C | 89% | 1014.8 hPa | 0 mm | - | - | - |
| 1777557640 | 20° C | 91% | 1014.7 hPa | 0 mm | - | - | - |
| 1777555840 | 18.89° C | 93% | 1014.6 hPa | 0 mm | - | - | - |
| 1777551620 | 18.33° C | 93% | 1014.3 hPa | 0 mm | - | - | - |
| 1777549819 | 18.33° C | 93% | 1013.2 hPa | 0 mm | - | - | - |
| 1777549220 | 18.33° C | 93% | 1012.6 hPa | 0 mm | - | - | - |
| 1777545060 | 18.89° C | 93% | 1013.7 hPa | 0 mm | - | - | - |
| 1777543839 | 18.89° C | 93% | 1013.5 hPa | 0 mm | - | - | - |
| 1777540819 | 18.89° C | 93% | 1013 hPa | 0 mm | - | - | - |
| 1777535419 | 18.89° C | 93% | 1011.4 hPa | 0 mm | - | - | - |
| 1777534819 | 18.89° C | 93% | 1011.5 hPa | 0 mm | - | - | - |
| 1777533019 | 18.89° C | 93% | 1011.7 hPa | 0 mm | - | - | - |
| 1777531219 | 18.89° C | 93% | 1012.3 hPa | 0 mm | - | - | - |
| 1777518019 | 18.89° C | 92% | 1016.3 hPa | 0.25 mm | - | - | - |
| 1777517418 | 18.89° C | 92% | 1016.3 hPa | 0.25 mm | - | - | - |
| 1777515618 | 18.89° C | 91% | 1017.3 hPa | 0.25 mm | - | - | - |
| 1777511419 | 20.56° C | 90% | 1015.9 hPa | 1.02 mm | - | - | - |
| 1777510818 | 21.67° C | 89% | 1015.5 hPa | 1.02 mm | - | - | - |
| 1777509620 | 22.78° C | 90% | 1015.3 hPa | 0.51 mm | - | - | - |
| 1777508418 | 23.33° C | 88% | 1015.1 hPa | 0.25 mm | - | - | - |
| 1777507220 | 23.89° C | 86% | 1015.1 hPa | 0 mm | - | - | - |
| 1777501820 | 25.56° C | 79% | 1013.5 hPa | 0 mm | - | - | - |
| 1777498220 | 26.11° C | 77% | 1013.3 hPa | 0 mm | - | - | - |
| 1777491020 | 28.33° C | 69% | 1014.7 hPa | 0 mm | - | - | - |
| 1777490420 | 28.89° C | 69% | 1014.9 hPa | 0 mm | - | - | - |
* Rain latest hour (hover to see other rain measurements)
** Current wind speed in m/s (hover to see current wind gust speed)